Time;durP1;ratioP1;P1;durP2;ratioP2;P2;SDS_P1;SDS_P2;PMS_P1;PMS_P2;Temp;Humidity;BMP_temperature;BMP_pressure;BME280_temperature;BME280_humidity;BME280_pressure;Samples;Min_cycle;Max_cycle;Signal;HPM_P1;HPM_P2
2022/01/11 00:02:18;;;;;;;5.97;5.50;;;;;;;;;;5028594;28;20906;-64
2022/01/11 00:04:44;;;;;;;5.70;5.30;;;;;;;;;;5029909;28;20423;-64
2022/01/11 00:07:14;;;;;;;7.40;5.60;;;;;;;;;;5028878;28;20439;-65
2022/01/11 00:09:42;;;;;;;5.90;5.50;;;;;;;;;;5029825;28;20505;-65
2022/01/11 00:12:09;;;;;;;5.97;5.40;;;;;;;;;;5028676;28;20955;-65
2022/01/11 00:14:38;;;;;;;5.90;5.50;;;;;;;;;;5028858;28;20518;-64
2022/01/11 00:17:04;;;;;;;5.20;4.90;;;;;;;;;;5028135;28;20494;-65
2022/01/11 00:19:32;;;;;;;5.03;4.63;;;;;;;;;;5029550;28;20431;-64
2022/01/11 00:22:00;;;;;;;8.63;5.33;;;;;;;;;;5029081;28;20455;-64
2022/01/11 00:24:28;;;;;;;6.30;5.80;;;;;;;;;;5028645;28;20439;-64
2022/01/11 00:26:54;;;;;;;7.23;5.63;;;;;;;;;;5028771;28;20526;-65
2022/01/11 00:29:20;;;;;;;5.57;5.03;;;;;;;;;;5029362;28;20806;-65
2022/01/11 00:31:47;;;;;;;7.97;5.60;;;;;;;;;;5028630;28;20443;-65
2022/01/11 00:34:16;;;;;;;6.00;5.27;;;;;;;;;;5029310;28;20467;-65
2022/01/11 00:36:42;;;;;;;10.57;5.77;;;;;;;;;;5028348;28;20471;-65
2022/01/11 00:39:09;;;;;;;7.03;6.40;;;;;;;;;;5028282;28;20805;-64
2022/01/11 00:41:37;;;;;;;13.80;5.60;;;;;;;;;;5028840;28;20483;-65
2022/01/11 00:44:03;;;;;;;6.37;5.80;;;;;;;;;;5028533;28;20450;-65
2022/01/11 00:46:29;;;;;;;11.20;5.40;;;;;;;;;;5027579;28;20446;-65
2022/01/11 00:48:55;;;;;;;6.00;5.60;;;;;;;;;;5029167;28;20443;-65
2022/01/11 00:51:21;;;;;;;6.10;5.50;;;;;;;;;;5028149;28;20526;-65
2022/01/11 00:53:47;;;;;;;6.60;6.00;;;;;;;;;;5027601;28;20458;-65
2022/01/11 00:56:13;;;;;;;7.33;5.63;;;;;;;;;;5027224;28;20443;-64
2022/01/11 00:58:39;;;;;;;8.10;5.93;;;;;;;;;;5031975;28;20446;-65
2022/01/11 01:01:05;;;;;;;5.27;4.83;;;;;;;;;;5031533;28;20435;-64
2022/01/11 01:03:31;;;;;;;5.20;4.80;;;;;;;;;;5031745;28;20496;-65
2022/01/11 01:05:57;;;;;;;5.50;5.10;;;;;;;;;;5031771;28;20442;-64
2022/01/11 01:08:23;;;;;;;6.07;5.37;;;;;;;;;;5032678;28;20440;-65
2022/01/11 01:10:50;;;;;;;6.87;6.07;;;;;;;;;;5032507;28;20524;-64
2022/01/11 01:13:21;;;;;;;6.30;5.80;;;;;;;;;;5032133;28;20443;-65
2022/01/11 01:15:48;;;;;;;5.80;5.33;;;;;;;;;;5031928;28;20423;-65
2022/01/11 01:18:20;;;;;;;5.30;4.83;;;;;;;;;;5032371;28;20486;-65
2022/01/11 01:20:46;;;;;;;11.40;5.50;;;;;;;;;;5032797;28;20433;-65
2022/01/11 01:23:13;;;;;;;5.63;5.13;;;;;;;;;;5031879;28;20560;-65
2022/01/11 01:25:41;;;;;;;5.30;5.00;;;;;;;;;;5029890;28;20431;-64
2022/01/11 01:28:08;;;;;;;5.67;5.13;;;;;;;;;;5031818;28;20810;-64
2022/01/11 01:30:34;;;;;;;6.13;5.60;;;;;;;;;;5032809;28;20415;-65
2022/01/11 01:33:01;;;;;;;5.87;5.37;;;;;;;;;;5032292;28;20437;-65
2022/01/11 01:35:32;;;;;;;8.07;5.23;;;;;;;;;;5031763;28;20443;-64
2022/01/11 01:37:58;;;;;;;22.73;7.93;;;;;;;;;;5032655;28;20496;-64
2022/01/11 01:40:24;;;;;;;5.17;4.43;;;;;;;;;;5031744;28;20427;-64
2022/01/11 01:42:51;;;;;;;5.73;5.30;;;;;;;;;;5031356;28;20492;-64
2022/01/11 01:45:19;;;;;;;6.67;5.73;;;;;;;;;;5028419;28;22030;-64
2022/01/11 01:47:45;;;;;;;5.07;4.67;;;;;;;;;;5032623;28;20442;-64
2022/01/11 01:50:11;;;;;;;4.90;4.50;;;;;;;;;;5028991;28;20489;-65
2022/01/11 01:52:37;;;;;;;5.13;4.63;;;;;;;;;;5031933;28;20454;-64
2022/01/11 01:55:05;;;;;;;4.93;4.57;;;;;;;;;;5028600;28;20472;-64
2022/01/11 01:57:32;;;;;;;6.47;5.20;;;;;;;;;;5029467;28;20829;-64
2022/01/11 01:59:58;;;;;;;4.80;4.30;;;;;;;;;;5033436;28;20462;-65
2022/01/11 02:02:24;;;;;;;5.33;4.93;;;;;;;;;;5030117;28;21862;-64
2022/01/11 02:04:50;;;;;;;10.10;5.97;;;;;;;;;;5030813;28;20845;-64
2022/01/11 02:07:16;;;;;;;6.40;5.70;;;;;;;;;;5029817;28;20455;-65
2022/01/11 02:09:42;;;;;;;5.30;5.00;;;;;;;;;;5031056;28;20445;-65
2022/01/11 02:12:08;;;;;;;5.77;5.07;;;;;;;;;;5031024;28;20535;-64
2022/01/11 02:14:34;;;;;;;6.33;5.70;;;;;;;;;;5026840;28;20439;-64
2022/01/11 02:17:01;;;;;;;4.90;4.67;;;;;;;;;;5031389;28;20848;-65
2022/01/11 02:19:27;;;;;;;6.37;5.93;;;;;;;;;;5031311;28;20427;-64
2022/01/11 02:21:53;;;;;;;4.50;4.30;;;;;;;;;;5031489;28;20435;-64
2022/01/11 02:24:19;;;;;;;5.70;5.13;;;;;;;;;;5029913;28;20488;-64
2022/01/11 02:26:45;;;;;;;5.00;4.70;;;;;;;;;;5026862;28;20451;-64
2022/01/11 02:29:11;;;;;;;6.90;5.23;;;;;;;;;;5029255;28;20928;-64
2022/01/11 02:31:38;;;;;;;5.43;4.90;;;;;;;;;;5030707;28;20447;-65
2022/01/11 02:34:05;;;;;;;6.23;5.00;;;;;;;;;;5042282;28;20434;-65
2022/01/11 02:36:35;;;;;;;6.13;5.67;;;;;;;;;;5029971;28;20470;-64
2022/01/11 02:39:01;;;;;;;5.70;5.17;;;;;;;;;;5031439;28;20481;-65
2022/01/11 02:41:28;;;;;;;5.20;4.80;;;;;;;;;;5030600;28;21009;-64
2022/01/11 02:43:54;;;;;;;5.30;5.00;;;;;;;;;;5027807;28;20954;-64
2022/01/11 02:46:21;;;;;;;8.20;4.60;;;;;;;;;;5028013;28;20443;-65
2022/01/11 02:48:51;;;;;;;6.53;5.07;;;;;;;;;;5030924;28;20471;-64
2022/01/11 02:51:17;;;;;;;6.70;6.00;;;;;;;;;;5030923;28;20435;-64
2022/01/11 02:53:48;;;;;;;4.93;4.60;;;;;;;;;;5028790;28;20969;-64
2022/01/11 02:56:14;;;;;;;5.50;5.10;;;;;;;;;;5030205;28;20521;-64
2022/01/11 02:58:41;;;;;;;5.87;5.43;;;;;;;;;;5026900;28;20451;-65
2022/01/11 03:01:07;;;;;;;7.43;5.40;;;;;;;;;;5029475;28;21136;-64
2022/01/11 03:03:33;;;;;;;6.00;5.60;;;;;;;;;;5030105;28;20443;-64
2022/01/11 03:06:03;;;;;;;5.70;5.30;;;;;;;;;;5030579;28;20973;-65
2022/01/11 03:08:30;;;;;;;7.47;5.70;;;;;;;;;;5028927;28;20864;-64
2022/01/11 03:10:57;;;;;;;8.23;5.43;;;;;;;;;;5024308;28;20443;-64
2022/01/11 03:13:23;;;;;;;5.60;5.20;;;;;;;;;;5029957;28;20818;-65
2022/01/11 03:15:52;;;;;;;5.40;5.00;;;;;;;;;;5030713;28;20435;-64
2022/01/11 03:18:19;;;;;;;8.90;4.90;;;;;;;;;;5028702;28;20482;-65
2022/01/11 03:20:46;;;;;;;5.93;5.53;;;;;;;;;;5026785;28;20459;-65
2022/01/11 03:23:13;;;;;;;6.57;5.90;;;;;;;;;;5030547;28;20816;-65
2022/01/11 03:25:40;;;;;;;5.27;4.97;;;;;;;;;;5029531;28;20431;-64
2022/01/11 03:28:06;;;;;;;5.53;5.07;;;;;;;;;;5030298;28;20572;-65
2022/01/11 03:30:33;;;;;;;5.03;4.80;;;;;;;;;;5025697;28;20500;-65
2022/01/11 03:32:59;;;;;;;6.23;5.40;;;;;;;;;;5030189;28;20847;-65
2022/01/11 03:35:26;;;;;;;4.00;3.90;;;;;;;;;;5030129;28;20506;-64
2022/01/11 03:37:52;;;;;;;7.17;4.93;;;;;;;;;;5029845;28;20478;-65
2022/01/11 03:40:19;;;;;;;4.53;4.10;;;;;;;;;;5026959;28;20447;-64
2022/01/11 03:42:46;;;;;;;4.93;4.63;;;;;;;;;;5027777;28;20517;-64
2022/01/11 03:45:12;;;;;;;5.10;4.70;;;;;;;;;;5029899;28;20430;-64
2022/01/11 03:47:39;;;;;;;4.87;4.57;;;;;;;;;;5029836;28;20849;-64
2022/01/11 03:50:06;;;;;;;5.67;5.13;;;;;;;;;;5028269;28;20435;-64
2022/01/11 03:52:32;;;;;;;4.77;4.47;;;;;;;;;;5027222;28;20443;-64
2022/01/11 03:57:26;;;;;;;4.73;4.43;;;;;;;;;;5029847;28;20482;-64
2022/01/11 03:59:53;;;;;;;6.23;4.93;;;;;;;;;;5028953;28;20554;-64
2022/01/11 04:02:19;;;;;;;5.67;4.43;;;;;;;;;;5024339;28;20530;-64
2022/01/11 04:04:52;;;;;;;4.67;4.47;;;;;;;;;;5029174;28;20435;-64
2022/01/11 04:07:18;;;;;;;4.60;4.30;;;;;;;;;;5029276;28;20513;-64
2022/01/11 04:09:44;;;;;;;4.67;4.30;;;;;;;;;;5028778;28;20441;-64
2022/01/11 04:12:10;;;;;;;10.27;4.23;;;;;;;;;;5029628;28;20447;-64
2022/01/11 04:14:38;;;;;;;3.67;3.50;;;;;;;;;;5029565;28;20485;-64
2022/01/11 04:17:04;;;;;;;5.30;5.00;;;;;;;;;;5024781;28;20902;-65
2022/01/11 04:19:30;;;;;;;5.50;4.83;;;;;;;;;;5028984;28;20538;-65
2022/01/11 04:21:56;;;;;;;4.03;3.80;;;;;;;;;;5029119;28;20526;-64
2022/01/11 04:24:22;;;;;;;6.07;5.57;;;;;;;;;;5029546;28;20946;-64
2022/01/11 04:26:48;;;;;;;6.07;5.57;;;;;;;;;;5025747;28;20435;-65
2022/01/11 04:29:14;;;;;;;5.67;5.27;;;;;;;;;;5028721;28;20443;-64
2022/01/11 04:31:40;;;;;;;7.57;6.60;;;;;;;;;;5027501;28;20439;-65
2022/01/11 04:34:06;;;;;;;6.37;5.87;;;;;;;;;;5028860;28;20434;-64
2022/01/11 04:36:33;;;;;;;9.00;6.87;;;;;;;;;;5027142;28;21007;-64
2022/01/11 04:39:00;;;;;;;7.63;7.03;;;;;;;;;;5026499;28;20931;-64
2022/01/11 04:41:26;;;;;;;7.60;6.93;;;;;;;;;;5028628;28;20838;-65
2022/01/11 04:43:52;;;;;;;9.27;6.87;;;;;;;;;;5029419;28;20991;-65
2022/01/11 04:46:18;;;;;;;8.70;7.87;;;;;;;;;;5027068;28;20542;-65
2022/01/11 04:48:48;;;;;;;7.03;6.43;;;;;;;;;;5025161;28;20437;-64
2022/01/11 04:51:14;;;;;;;6.90;6.40;;;;;;;;;;5029183;28;20485;-64
2022/01/11 04:53:40;;;;;;;7.47;6.70;;;;;;;;;;5029276;28;20473;-64
2022/01/11 04:56:06;;;;;;;6.10;5.80;;;;;;;;;;5028408;28;20490;-64
2022/01/11 04:58:32;;;;;;;7.30;6.60;;;;;;;;;;5023411;28;20455;-64
2022/01/11 05:00:58;;;;;;;7.67;6.93;;;;;;;;;;5027221;28;20435;-66
2022/01/11 05:03:24;;;;;;;7.50;6.70;;;;;;;;;;5028906;28;20543;-64
2022/01/11 05:05:50;;;;;;;7.10;6.50;;;;;;;;;;5027460;28;20435;-64
2022/01/11 05:08:16;;;;;;;6.97;6.30;;;;;;;;;;5025221;28;20616;-64
2022/01/11 05:10:42;;;;;;;7.17;6.60;;;;;;;;;;5025856;28;20533;-64
2022/01/11 05:13:16;;;;;;;7.10;6.50;;;;;;;;;;5029962;28;20960;-64
2022/01/11 05:15:42;;;;;;;7.47;6.77;;;;;;;;;;5024394;28;20490;-65
2022/01/11 05:18:08;;;;;;;7.83;7.13;;;;;;;;;;5027963;28;20483;-65
2022/01/11 05:20:35;;;;;;;6.30;5.80;;;;;;;;;;5029173;28;20482;-65
2022/01/11 05:23:01;;;;;;;8.17;7.40;;;;;;;;;;5028509;28;20423;-65
2022/01/11 05:25:27;;;;;;;6.80;6.40;;;;;;;;;;5028011;28;20967;-65
2022/01/11 05:27:53;;;;;;;7.57;6.77;;;;;;;;;;5027819;28;20446;-65
2022/01/11 05:30:19;;;;;;;6.87;6.37;;;;;;;;;;5029852;28;20439;-66
2022/01/11 05:32:45;;;;;;;7.10;6.60;;;;;;;;;;5028979;28;20525;-66
2022/01/11 05:35:13;;;;;;;5.97;5.57;;;;;;;;;;5028026;28;20494;-65
2022/01/11 05:37:39;;;;;;;7.47;6.87;;;;;;;;;;5023820;28;20502;-65
2022/01/11 05:40:05;;;;;;;5.63;5.33;;;;;;;;;;5028146;28;20942;-65
2022/01/11 05:42:31;;;;;;;7.67;6.97;;;;;;;;;;5028898;28;20482;-65
2022/01/11 05:44:57;;;;;;;7.80;7.17;;;;;;;;;;5032062;28;20435;-65
2022/01/11 05:47:24;;;;;;;6.40;5.83;;;;;;;;;;5028111;28;20523;-66
2022/01/11 05:49:50;;;;;;;6.63;6.30;;;;;;;;;;5031662;28;20525;-65
2022/01/11 05:52:16;;;;;;;7.80;7.20;;;;;;;;;;5031654;28;20438;-65
2022/01/11 05:54:42;;;;;;;6.80;6.30;;;;;;;;;;5031515;28;20432;-65
2022/01/11 05:57:08;;;;;;;6.40;5.90;;;;;;;;;;5028800;28;20471;-65
2022/01/11 05:59:34;;;;;;;6.33;5.77;;;;;;;;;;5026910;28;21829;-65
2022/01/11 06:02:00;;;;;;;7.03;6.53;;;;;;;;;;5032024;28;21669;-65
2022/01/11 06:04:26;;;;;;;7.30;6.70;;;;;;;;;;5030865;28;20518;-65
2022/01/11 06:06:52;;;;;;;7.87;7.27;;;;;;;;;;5031155;28;20435;-65
2022/01/11 06:09:19;;;;;;;7.80;7.10;;;;;;;;;;5027303;28;20454;-65
2022/01/11 06:11:45;;;;;;;8.27;7.53;;;;;;;;;;5031697;28;20449;-65
2022/01/11 06:14:10;;;;;;;7.43;6.77;;;;;;;;;;5031750;28;20424;-65
2022/01/11 06:16:36;;;;;;;8.10;7.03;;;;;;;;;;5030993;28;20487;-66
2022/01/11 06:19:03;;;;;;;6.97;6.40;;;;;;;;;;5027850;28;20443;-65
2022/01/11 06:21:29;;;;;;;7.40;6.80;;;;;;;;;;5028825;28;20455;-66
2022/01/11 06:23:55;;;;;;;7.90;7.00;;;;;;;;;;5030427;28;20460;-65
2022/01/11 06:26:21;;;;;;;7.67;6.93;;;;;;;;;;5030411;28;20438;-65
2022/01/11 06:28:47;;;;;;;7.07;6.47;;;;;;;;;;5027345;28;21009;-65
2022/01/11 06:31:14;;;;;;;8.07;7.37;;;;;;;;;;5030623;28;20454;-65
2022/01/11 06:33:40;;;;;;;8.17;6.77;;;;;;;;;;5030552;28;20924;-65
2022/01/11 06:36:11;;;;;;;7.87;7.20;;;;;;;;;;5030507;28;20444;-65
2022/01/11 06:38:38;;;;;;;6.43;5.93;;;;;;;;;;5029354;28;21040;-65
2022/01/11 06:41:04;;;;;;;8.13;6.97;;;;;;;;;;5027733;28;20834;-65
2022/01/11 06:43:30;;;;;;;9.10;7.47;;;;;;;;;;5031914;28;20955;-65
2022/01/11 06:45:56;;;;;;;8.63;7.90;;;;;;;;;;5025942;28;20935;-65
2022/01/11 06:48:22;;;;;;;16.20;10.73;;;;;;;;;;5028523;28;20447;-65
2022/01/11 06:50:48;;;;;;;19.43;11.23;;;;;;;;;;5028472;28;20966;-65
2022/01/11 06:53:14;;;;;;;13.93;10.27;;;;;;;;;;5028329;28;20439;-65
2022/01/11 06:55:40;;;;;;;12.20;8.43;;;;;;;;;;5029314;28;20427;-65
2022/01/11 06:58:07;;;;;;;11.67;9.37;;;;;;;;;;5027556;28;20885;-65
2022/01/11 07:00:33;;;;;;;7.63;6.93;;;;;;;;;;5023051;28;21254;-66
2022/01/11 07:02:59;;;;;;;8.80;6.50;;;;;;;;;;5030946;28;20432;-65
2022/01/11 07:05:25;;;;;;;7.00;6.30;;;;;;;;;;5028537;28;20957;-65
2022/01/11 07:07:51;;;;;;;8.83;8.03;;;;;;;;;;5027414;28;20443;-65
2022/01/11 07:10:18;;;;;;;10.93;7.70;;;;;;;;;;5027808;28;20438;-65
2022/01/11 07:12:45;;;;;;;9.90;8.00;;;;;;;;;;5023833;28;20517;-65
2022/01/11 07:15:11;;;;;;;14.23;7.33;;;;;;;;;;5027593;28;20433;-64
2022/01/11 07:17:37;;;;;;;12.90;11.20;;;;;;;;;;5029891;28;20479;-65
2022/01/11 07:20:03;;;;;;;11.97;8.97;;;;;;;;;;5029497;28;20431;-65
2022/01/11 07:22:30;;;;;;;10.00;8.43;;;;;;;;;;5026841;28;20474;-65
2022/01/11 07:24:55;;;;;;;9.27;6.90;;;;;;;;;;5028746;28;20428;-65
2022/01/11 07:27:22;;;;;;;8.93;7.80;;;;;;;;;;5025823;28;20846;-65
2022/01/11 07:29:48;;;;;;;7.70;6.90;;;;;;;;;;5029509;28;20795;-67
2022/01/11 07:32:14;;;;;;;7.97;7.00;;;;;;;;;;5027835;28;20419;-65
2022/01/11 07:34:40;;;;;;;7.13;6.47;;;;;;;;;;5028246;28;20961;-65
2022/01/11 07:37:06;;;;;;;6.37;5.90;;;;;;;;;;5026878;28;20483;-65
2022/01/11 07:39:32;;;;;;;9.50;7.90;;;;;;;;;;5029248;28;20451;-65
2022/01/11 07:41:58;;;;;;;14.97;9.47;;;;;;;;;;5023811;28;20534;-65
2022/01/11 07:44:25;;;;;;;10.93;7.90;;;;;;;;;;5024066;28;20967;-65
2022/01/11 07:46:52;;;;;;;11.13;8.40;;;;;;;;;;5024867;28;20467;-65
2022/01/11 07:49:18;;;;;;;7.57;6.77;;;;;;;;;;5029052;28;20522;-65
2022/01/11 07:51:44;;;;;;;10.07;7.73;;;;;;;;;;5025269;28;20749;-65
2022/01/11 07:54:10;;;;;;;10.47;7.97;;;;;;;;;;5027605;28;20455;-65
2022/01/11 07:56:36;;;;;;;8.77;7.90;;;;;;;;;;5027028;28;20562;-65
2022/01/11 07:59:02;;;;;;;7.50;6.70;;;;;;;;;;5027115;28;20464;-65
2022/01/11 08:01:28;;;;;;;12.23;7.93;;;;;;;;;;5023968;28;20951;-65
2022/01/11 08:03:54;;;;;;;15.50;9.60;;;;;;;;;;5028937;28;20431;-65
2022/01/11 08:06:20;;;;;;;7.93;7.13;;;;;;;;;;5025006;28;20458;-65
2022/01/11 08:08:47;;;;;;;11.40;8.30;;;;;;;;;;5028594;28;20435;-65
2022/01/11 08:11:12;;;;;;;10.73;7.40;;;;;;;;;;5028206;28;20420;-65
2022/01/11 08:13:40;;;;;;;8.20;7.47;;;;;;;;;;5027349;28;20505;-65
2022/01/11 08:16:06;;;;;;;7.50;6.80;;;;;;;;;;5026530;28;20446;-65
2022/01/11 08:18:32;;;;;;;7.03;6.43;;;;;;;;;;5026423;28;20538;-65
2022/01/11 08:20:58;;;;;;;9.70;7.73;;;;;;;;;;5028632;28;20427;-65
2022/01/11 08:23:24;;;;;;;9.77;7.80;;;;;;;;;;5026876;28;20946;-65
2022/01/11 08:25:50;;;;;;;6.87;6.23;;;;;;;;;;5020860;28;20442;-65
2022/01/11 08:28:17;;;;;;;8.03;7.33;;;;;;;;;;5025851;28;20444;-65
2022/01/11 08:30:43;;;;;;;8.10;7.40;;;;;;;;;;5027822;28;20454;-65
2022/01/11 08:33:12;;;;;;;7.27;6.60;;;;;;;;;;5025356;28;20529;-65
2022/01/11 08:35:38;;;;;;;7.70;6.30;;;;;;;;;;5021704;28;20451;-65
2022/01/11 08:38:04;;;;;;;12.20;7.63;;;;;;;;;;5025728;28;20937;-65
2022/01/11 08:40:30;;;;;;;6.90;6.30;;;;;;;;;;5022607;28;20444;-65
2022/01/11 08:42:56;;;;;;;13.13;7.80;;;;;;;;;;5023165;28;20459;-65
2022/01/11 08:45:22;;;;;;;6.10;5.60;;;;;;;;;;5025162;28;20443;-65
2022/01/11 08:47:48;;;;;;;10.37;7.20;;;;;;;;;;5028391;28;22113;-65
2022/01/11 08:50:14;;;;;;;6.67;6.17;;;;;;;;;;5024704;28;20435;-65
2022/01/11 08:52:41;;;;;;;7.63;6.60;;;;;;;;;;5027993;28;20439;-65
2022/01/11 08:55:08;;;;;;;6.57;5.97;;;;;;;;;;5025487;28;20450;-65
2022/01/11 08:57:35;;;;;;;5.97;5.43;;;;;;;;;;5027989;28;20577;-65
2022/01/11 09:00:03;;;;;;;6.43;5.93;;;;;;;;;;5025075;28;20939;-65
2022/01/11 09:02:32;;;;;;;7.97;7.37;;;;;;;;;;5028410;28;20859;-65
2022/01/11 09:04:58;;;;;;;8.13;7.33;;;;;;;;;;5025976;28;20497;-65
2022/01/11 09:07:24;;;;;;;7.47;6.77;;;;;;;;;;5028176;28;20919;-65
2022/01/11 09:09:51;;;;;;;10.57;7.07;;;;;;;;;;5024400;28;20452;-65
2022/01/11 09:12:19;;;;;;;7.70;6.90;;;;;;;;;;5026860;28;20995;-65
2022/01/11 09:14:45;;;;;;;8.67;7.40;;;;;;;;;;5025980;28;20804;-65
2022/01/11 09:17:11;;;;;;;7.20;6.60;;;;;;;;;;5028355;28;20471;-66
2022/01/11 09:19:37;;;;;;;8.40;7.20;;;;;;;;;;5030873;28;20481;-67
2022/01/11 09:22:04;;;;;;;8.83;8.00;;;;;;;;;;5032366;28;20513;-65
2022/01/11 09:24:30;;;;;;;5.87;5.47;;;;;;;;;;5027923;28;21072;-64
2022/01/11 09:26:57;;;;;;;7.07;6.37;;;;;;;;;;5031754;28;20427;-65
2022/01/11 09:29:23;;;;;;;9.40;7.00;;;;;;;;;;5030654;28;20427;-65
2022/01/11 09:31:49;;;;;;;6.37;5.73;;;;;;;;;;5030531;28;20431;-65
2022/01/11 09:34:17;;;;;;;6.70;5.90;;;;;;;;;;5030353;28;20433;-65
2022/01/11 09:36:43;;;;;;;7.33;6.30;;;;;;;;;;5028994;28;20467;-65
2022/01/11 09:39:09;;;;;;;6.43;5.93;;;;;;;;;;5029760;28;20846;-66
2022/01/11 09:41:35;;;;;;;7.67;6.93;;;;;;;;;;5029882;28;21018;-65
2022/01/11 09:44:02;;;;;;;7.17;6.57;;;;;;;;;;5029375;28;20534;-65
2022/01/11 09:46:28;;;;;;;11.47;7.77;;;;;;;;;;5029933;28;20447;-65
2022/01/11 09:48:54;;;;;;;7.50;6.70;;;;;;;;;;5027635;28;20450;-65
2022/01/11 09:51:20;;;;;;;6.47;5.90;;;;;;;;;;5026929;28;20462;-66
2022/01/11 09:53:47;;;;;;;5.70;5.30;;;;;;;;;;5027013;28;20443;-67
2022/01/11 09:56:13;;;;;;;5.83;5.50;;;;;;;;;;5025183;28;20972;-65
2022/01/11 09:58:40;;;;;;;6.57;5.97;;;;;;;;;;5029522;28;21038;-65
2022/01/11 10:01:06;;;;;;;8.50;6.70;;;;;;;;;;5027578;28;20439;-69
2022/01/11 10:03:52;;;;;;;10.57;8.00;;;;;;;;;;5030392;28;20946;-66
2022/01/11 10:06:18;;;;;;;9.60;7.73;;;;;;;;;;5029187;28;20453;-66
2022/01/11 10:08:44;;;;;;;8.10;6.20;;;;;;;;;;5030321;28;20435;-65
2022/01/11 10:11:10;;;;;;;9.27;6.80;;;;;;;;;;5029250;28;21038;-66
2022/01/11 10:13:38;;;;;;;7.60;6.77;;;;;;;;;;5029861;28;20809;-65
2022/01/11 10:16:19;;;;;;;9.60;6.80;;;;;;;;;;5029300;28;20497;-65
2022/01/11 10:18:45;;;;;;;13.07;7.93;;;;;;;;;;5030057;28;20947;-66
2022/01/11 10:21:30;;;;;;;7.90;7.20;;;;;;;;;;5028383;28;20439;-66
2022/01/11 10:23:56;;;;;;;10.83;8.50;;;;;;;;;;5041516;28;20439;-66
2022/01/11 10:26:44;;;;;;;9.87;8.60;;;;;;;;;;5030616;28;21017;-65
2022/01/11 10:29:23;;;;;;;8.23;5.80;;;;;;;;;;5027675;28;20466;-65
2022/01/11 10:31:49;;;;;;;10.05;9.05;;;;;;;;;;5028630;28;20417;-66
2022/01/11 10:34:15;;;;;;;9.03;8.13;;;;;;;;;;5028035;28;20184;-66
2022/01/11 10:36:47;;;;;;;8.70;7.67;;;;;;;;;;5028089;28;20462;-66
2022/01/11 10:39:28;;;;;;;8.13;7.20;;;;;;;;;;5028042;28;20528;-65
2022/01/11 10:41:54;;;;;;;12.13;7.30;;;;;;;;;;5029065;28;20475;-67
2022/01/11 10:44:39;;;;;;;10.40;9.30;;;;;;;;;;5027069;28;20955;-67
2022/01/11 10:47:05;;;;;;;13.40;10.77;;;;;;;;;;5030161;28;20493;-65
2022/01/11 10:49:32;;;;;;;15.43;9.90;;;;;;;;;;5026689;28;20958;-66
2022/01/11 10:52:17;;;;;;;12.17;9.23;;;;;;;;;;5028814;28;20552;-65
2022/01/11 10:54:43;;;;;;;13.80;9.53;;;;;;;;;;5027012;28;20504;-65
2022/01/11 10:57:29;;;;;;;16.80;7.30;;;;;;;;;;5030263;28;20560;-64
2022/01/11 11:00:13;;;;;;;11.47;7.87;;;;;;;;;;5023564;28;20573;-64
2022/01/11 11:02:40;;;;;;;11.57;8.90;;;;;;;;;;5028138;28;20447;-64
2022/01/11 11:05:12;;;;;;;11.10;8.13;;;;;;;;;;5027301;28;20969;-64
2022/01/11 11:07:38;;;;;;;13.03;9.93;;;;;;;;;;5027097;28;20538;-65
2022/01/11 11:10:04;;;;;;;14.80;8.77;;;;;;;;;;5025091;28;20443;-64
2022/01/11 11:12:30;;;;;;;12.17;8.83;;;;;;;;;;5025989;28;20446;-65
2022/01/11 11:14:57;;;;;;;11.43;9.03;;;;;;;;;;5027563;28;20504;-65
2022/01/11 11:17:33;;;;;;;10.53;8.17;;;;;;;;;;5026623;28;20486;-65
2022/01/11 11:20:07;;;;;;;10.23;8.00;;;;;;;;;;5024510;28;20880;-66
2022/01/11 11:22:33;;;;;;;10.50;8.87;;;;;;;;;;5025852;28;20435;-65
2022/01/11 11:24:59;;;;;;;11.27;8.50;;;;;;;;;;5026614;28;20509;-64
2022/01/11 11:27:28;;;;;;;9.33;8.37;;;;;;;;;;5026860;28;20443;-65
2022/01/11 11:29:54;;;;;;;9.20;8.17;;;;;;;;;;5025725;28;20459;-69
2022/01/11 11:32:21;;;;;;;12.33;8.83;;;;;;;;;;5028341;28;20447;-66
2022/01/11 11:34:51;;;;;;;10.57;8.20;;;;;;;;;;5027443;28;20509;-65
2022/01/11 11:37:26;;;;;;;10.50;9.30;;;;;;;;;;5024002;28;20827;-64
2022/01/11 11:40:00;;;;;;;12.97;8.93;;;;;;;;;;5026034;28;20435;-64
2022/01/11 11:42:28;;;;;;;15.37;9.90;;;;;;;;;;5027863;28;20474;-65
2022/01/11 11:44:57;;;;;;;12.10;8.10;;;;;;;;;;5020126;28;20812;-65
2022/01/11 11:47:30;;;;;;;13.70;9.67;;;;;;;;;;5027034;28;20526;-64
2022/01/11 11:50:01;;;;;;;15.87;10.63;;;;;;;;;;5026123;28;20416;-65
2022/01/11 11:52:44;;;;;;;31.00;17.27;;;;;;;;;;5033464;28;20447;-65
2022/01/11 11:55:30;;;;;;;28.30;18.50;;;;;;;;;;5038249;28;20487;-65
2022/01/11 11:58:03;;;;;;;19.13;12.73;;;;;;;;;;5028433;28;20497;-65
2022/01/11 12:00:29;;;;;;;19.80;14.90;;;;;;;;;;5025271;28;20477;-65
2022/01/11 12:02:56;;;;;;;14.37;9.80;;;;;;;;;;5027834;28;20832;-64
2022/01/11 12:05:34;;;;;;;13.70;9.90;;;;;;;;;;5026655;28;20430;-65
2022/01/11 12:08:20;;;;;;;12.93;10.20;;;;;;;;;;5025895;28;20993;-65
2022/01/11 12:10:49;;;;;;;18.27;9.97;;;;;;;;;;5026730;28;21009;-65
2022/01/11 12:13:34;;;;;;;11.00;9.17;;;;;;;;;;5027705;28;20430;-65
2022/01/11 12:16:00;;;;;;;13.87;9.37;;;;;;;;;;5026883;28;20446;-66
2022/01/11 12:18:41;;;;;;;12.10;9.77;;;;;;;;;;5020429;28;20527;-64
2022/01/11 12:21:06;;;;;;;21.13;15.23;;;;;;;;;;5023939;28;20438;-65
2022/01/11 12:23:36;;;;;;;12.23;9.13;;;;;;;;;;5021230;28;20451;-65
2022/01/11 12:26:16;;;;;;;11.47;9.60;;;;;;;;;;5025838;28;20431;-65
2022/01/11 12:28:42;;;;;;;10.73;8.80;;;;;;;;;;5025322;28;20451;-65
2022/01/11 12:31:24;;;;;;;12.90;11.27;;;;;;;;;;5026261;28;20443;-64
2022/01/11 12:33:50;;;;;;;19.27;10.63;;;;;;;;;;5022314;28;20446;-65
2022/01/11 12:36:16;;;;;;;11.90;9.40;;;;;;;;;;5024758;28;20439;-65
2022/01/11 12:39:02;;;;;;;13.33;9.67;;;;;;;;;;5023335;28;20498;-65
2022/01/11 12:41:37;;;;;;;13.43;8.97;;;;;;;;;;5028260;28;20471;-65
2022/01/11 12:44:21;;;;;;;13.40;9.60;;;;;;;;;;5023493;28;20493;-64
2022/01/11 12:46:52;;;;;;;11.93;9.20;;;;;;;;;;5025782;28;20439;-65
2022/01/11 12:49:18;;;;;;;9.13;8.23;;;;;;;;;;5026221;28;20434;-64
2022/01/11 12:51:50;;;;;;;14.40;11.30;;;;;;;;;;5022364;28;21790;-63
2022/01/11 12:54:17;;;;;;;29.97;17.00;;;;;;;;;;5024102;28;20442;-72
2022/01/11 12:56:43;;;;;;;15.67;11.00;;;;;;;;;;5029039;28;20925;-66
2022/01/11 12:59:10;;;;;;;15.83;10.90;;;;;;;;;;5026592;28;20454;-66
2022/01/11 13:01:36;;;;;;;18.40;11.37;;;;;;;;;;5026617;28;20943;-66
2022/01/11 13:04:02;;;;;;;19.63;12.13;;;;;;;;;;5025227;28;20545;-68
2022/01/11 13:06:32;;;;;;;20.77;13.07;;;;;;;;;;5026508;28;20549;-69
2022/01/11 13:08:59;;;;;;;15.87;12.20;;;;;;;;;;5024981;28;21944;-73
2022/01/11 13:11:25;;;;;;;18.23;11.90;;;;;;;;;;5030346;28;20438;-67
2022/01/11 13:14:15;;;;;;;15.43;11.47;;;;;;;;;;5026976;28;20474;-66
2022/01/11 13:16:41;;;;;;;18.83;12.23;;;;;;;;;;5027862;28;20513;-66
2022/01/11 13:19:15;;;;;;;17.77;12.00;;;;;;;;;;5026524;28;20920;-65
2022/01/11 13:21:41;;;;;;;13.93;9.73;;;;;;;;;;5029746;28;20437;-65
2022/01/11 13:24:27;;;;;;;16.17;11.40;;;;;;;;;;5029087;28;20450;-65
2022/01/11 13:26:54;;;;;;;16.20;11.40;;;;;;;;;;5032537;28;20427;-65
2022/01/11 13:29:21;;;;;;;16.17;9.67;;;;;;;;;;5031152;28;20434;-64
2022/01/11 13:31:50;;;;;;;13.33;10.10;;;;;;;;;;5030922;28;20475;-65
2022/01/11 13:34:16;;;;;;;15.37;9.50;;;;;;;;;;5029663;28;20520;-65
2022/01/11 13:36:47;;;;;;;13.00;8.50;;;;;;;;;;5026072;28;20454;-64
2022/01/11 13:39:14;;;;;;;11.90;9.00;;;;;;;;;;5027664;28;20463;-65
2022/01/11 13:41:49;;;;;;;10.77;8.93;;;;;;;;;;5027301;28;20479;-65
2022/01/11 13:44:19;;;;;;;12.40;9.03;;;;;;;;;;5028594;28;20454;-65
2022/01/11 13:46:47;;;;;;;15.03;10.93;;;;;;;;;;5032275;28;20941;-65
2022/01/11 13:49:17;;;;;;;11.47;9.30;;;;;;;;;;5029633;28;20926;-66
2022/01/11 13:51:44;;;;;;;10.50;8.87;;;;;;;;;;5032039;28;20466;-65
2022/01/11 13:54:10;;;;;;;10.33;8.70;;;;;;;;;;5029349;28;20989;-65
2022/01/11 13:56:40;;;;;;;10.90;9.10;;;;;;;;;;5030597;28;20446;-65
2022/01/11 13:59:06;;;;;;;14.43;10.67;;;;;;;;;;5029416;28;20470;-65
2022/01/11 14:01:32;;;;;;;10.97;9.30;;;;;;;;;;5031608;28;20427;-65
2022/01/11 14:04:13;;;;;;;12.23;8.90;;;;;;;;;;5027931;28;20439;-65
2022/01/11 14:06:41;;;;;;;12.90;9.10;;;;;;;;;;5045412;28;20859;-65
2022/01/11 14:09:16;;;;;;;10.37;9.03;;;;;;;;;;5029353;28;20574;-65
2022/01/11 14:11:51;;;;;;;10.37;9.27;;;;;;;;;;5030434;28;20997;-65
2022/01/11 14:14:22;;;;;;;9.10;8.10;;;;;;;;;;5026128;28;20565;-65
2022/01/11 14:16:50;;;;;;;14.43;10.23;;;;;;;;;;5030850;28;20510;-65
2022/01/11 14:19:16;;;;;;;10.10;8.73;;;;;;;;;;5026203;28;20807;-65
2022/01/11 14:21:53;;;;;;;11.93;10.43;;;;;;;;;;5029129;28;20428;-65
2022/01/11 14:24:19;;;;;;;12.17;9.37;;;;;;;;;;5027924;28;20431;-65
2022/01/11 14:26:46;;;;;;;21.43;9.73;;;;;;;;;;5031265;28;20493;-64
2022/01/11 14:29:22;;;;;;;16.50;11.17;;;;;;;;;;5026388;28;21141;-64
2022/01/11 14:32:07;;;;;;;17.57;9.93;;;;;;;;;;5030482;28;20513;-65
2022/01/11 14:34:33;;;;;;;11.07;9.53;;;;;;;;;;5028873;28;20473;-64
2022/01/11 14:37:19;;;;;;;10.50;8.23;;;;;;;;;;5025762;28;20565;-64
2022/01/11 14:39:47;;;;;;;10.20;7.73;;;;;;;;;;5028602;28;20457;-65
2022/01/11 14:42:13;;;;;;;17.60;9.80;;;;;;;;;;5028455;28;20483;-65
2022/01/11 14:44:39;;;;;;;11.43;9.00;;;;;;;;;;5029142;28;20438;-63